Terminal Aerodrome Forecast
Issued by NWS

Home | Current Version | Previous Version | Text Only | Print | Product List | Glossary On
Versions: 1 2 3 4 5 6 7 8 9 10 11 12 13 14 15 16 17 18 19 20 21 22 23 24 25 26 27 28 29 30 31 32 33 34
986
FTUS44 KLIX 240743 AAA
TAFHUM
TAF AMD
KHUM 240743Z 2408/2506 VRB03KT 4SM BR SKC
      TEMPO 2408/2412 1SM BR
     FM241300 13006KT P6SM SCT150
     FM241900 15010KT P6SM BKN120
     FM250200 15006KT P6SM BKN090=

USA.gov is the U.S. government's official web portal to all federal, state and local government web resources and services.